sensor_id;sensor_type;location;lat;lon;timestamp;P1;durP1;ratioP1;P2;durP2;ratioP2
75854;SDS011;64502;59.976;30.316;2024-02-26T00:01:00;9.50;;;4.43;;
75854;SDS011;64502;59.976;30.316;2024-02-26T00:03:27;11.57;;;4.53;;
75854;SDS011;64502;59.976;30.316;2024-02-26T00:05:53;11.30;;;4.88;;
75854;SDS011;64502;59.976;30.316;2024-02-26T00:08:18;10.55;;;4.07;;
75854;SDS011;64502;59.976;30.316;2024-02-26T00:10:44;8.20;;;3.78;;
75854;SDS011;64502;59.976;30.316;2024-02-26T00:13:09;9.73;;;4.00;;
75854;SDS011;64502;59.976;30.316;2024-02-26T00:15:35;10.77;;;4.10;;
75854;SDS011;64502;59.976;30.316;2024-02-26T00:20:45;7.97;;;3.85;;
75854;SDS011;64502;59.976;30.316;2024-02-26T00:23:14;11.05;;;3.72;;
75854;SDS011;64502;59.976;30.316;2024-02-26T00:28:07;9.85;;;4.18;;
75854;SDS011;64502;59.976;30.316;2024-02-26T00:30:33;6.82;;;3.10;;
75854;SDS011;64502;59.976;30.316;2024-02-26T00:32:58;8.75;;;3.35;;
75854;SDS011;64502;59.976;30.316;2024-02-26T00:35:24;5.47;;;2.55;;
75854;SDS011;64502;59.976;30.316;2024-02-26T00:40:34;7.80;;;3.15;;
75854;SDS011;64502;59.976;30.316;2024-02-26T00:43:18;6.53;;;2.92;;
75854;SDS011;64502;59.976;30.316;2024-02-26T00:46:02;5.85;;;2.92;;
75854;SDS011;64502;59.976;30.316;2024-02-26T00:48:28;6.55;;;2.83;;
75854;SDS011;64502;59.976;30.316;2024-02-26T00:51:12;8.38;;;3.22;;
75854;SDS011;64502;59.976;30.316;2024-02-26T00:53:38;6.43;;;2.95;;
75854;SDS011;64502;59.976;30.316;2024-02-26T00:56:03;6.70;;;2.08;;
75854;SDS011;64502;59.976;30.316;2024-02-26T00:58:29;5.13;;;3.00;;
75854;SDS011;64502;59.976;30.316;2024-02-26T01:00:54;5.97;;;2.63;;
75854;SDS011;64502;59.976;30.316;2024-02-26T01:03:20;5.68;;;2.50;;
75854;SDS011;64502;59.976;30.316;2024-02-26T01:08:30;6.38;;;2.08;;
75854;SDS011;64502;59.976;30.316;2024-02-26T01:11:14;5.07;;;2.25;;
75854;SDS011;64502;59.976;30.316;2024-02-26T01:13:39;5.15;;;1.80;;
75854;SDS011;64502;59.976;30.316;2024-02-26T01:16:05;4.93;;;2.17;;
75854;SDS011;64502;59.976;30.316;2024-02-26T01:18:30;8.27;;;2.75;;
75854;SDS011;64502;59.976;30.316;2024-02-26T01:23:40;7.53;;;2.83;;
75854;SDS011;64502;59.976;30.316;2024-02-26T01:26:06;5.75;;;2.30;;
75854;SDS011;64502;59.976;30.316;2024-02-26T01:28:31;4.70;;;2.38;;
75854;SDS011;64502;59.976;30.316;2024-02-26T01:30:57;5.75;;;2.03;;
75854;SDS011;64502;59.976;30.316;2024-02-26T01:33:24;8.63;;;2.92;;
75854;SDS011;64502;59.976;30.316;2024-02-26T01:35:50;6.07;;;1.95;;
75854;SDS011;64502;59.976;30.316;2024-02-26T01:38:16;4.28;;;1.75;;
75854;SDS011;64502;59.976;30.316;2024-02-26T01:40:42;6.03;;;2.05;;
75854;SDS011;64502;59.976;30.316;2024-02-26T01:43:07;8.80;;;2.35;;
75854;SDS011;64502;59.976;30.316;2024-02-26T01:45:33;4.35;;;2.10;;
75854;SDS011;64502;59.976;30.316;2024-02-26T01:47:58;4.35;;;1.80;;
75854;SDS011;64502;59.976;30.316;2024-02-26T01:50:24;4.47;;;1.77;;
75854;SDS011;64502;59.976;30.316;2024-02-26T01:55:34;6.05;;;2.50;;
75854;SDS011;64502;59.976;30.316;2024-02-26T01:58:00;3.97;;;1.77;;
75854;SDS011;64502;59.976;30.316;2024-02-26T02:00:26;6.93;;;2.08;;
75854;SDS011;64502;59.976;30.316;2024-02-26T02:02:51;6.95;;;2.05;;
75854;SDS011;64502;59.976;30.316;2024-02-26T02:05:19;5.78;;;2.22;;
75854;SDS011;64502;59.976;30.316;2024-02-26T02:07:46;6.95;;;2.35;;
75854;SDS011;64502;59.976;30.316;2024-02-26T02:10:13;7.57;;;3.15;;
75854;SDS011;64502;59.976;30.316;2024-02-26T02:12:40;5.85;;;2.17;;
75854;SDS011;64502;59.976;30.316;2024-02-26T02:15:06;6.30;;;2.60;;
75854;SDS011;64502;59.976;30.316;2024-02-26T02:17:32;6.20;;;2.58;;
75854;SDS011;64502;59.976;30.316;2024-02-26T02:22:45;6.55;;;2.75;;
75854;SDS011;64502;59.976;30.316;2024-02-26T02:25:11;9.75;;;3.13;;
75854;SDS011;64502;59.976;30.316;2024-02-26T02:27:37;10.45;;;2.88;;
75854;SDS011;64502;59.976;30.316;2024-02-26T02:30:03;8.07;;;2.75;;
75854;SDS011;64502;59.976;30.316;2024-02-26T02:32:30;9.32;;;3.78;;
75854;SDS011;64502;59.976;30.316;2024-02-26T02:34:55;7.90;;;3.38;;
75854;SDS011;64502;59.976;30.316;2024-02-26T02:37:22;8.82;;;3.10;;
75854;SDS011;64502;59.976;30.316;2024-02-26T02:39:47;9.02;;;3.17;;
75854;SDS011;64502;59.976;30.316;2024-02-26T02:42:13;8.23;;;3.78;;
75854;SDS011;64502;59.976;30.316;2024-02-26T02:44:38;9.07;;;4.38;;
75854;SDS011;64502;59.976;30.316;2024-02-26T02:47:04;8.88;;;3.60;;
75854;SDS011;64502;59.976;30.316;2024-02-26T02:49:29;8.95;;;4.60;;
75854;SDS011;64502;59.976;30.316;2024-02-26T02:51:55;9.32;;;4.50;;
75854;SDS011;64502;59.976;30.316;2024-02-26T02:54:22;12.27;;;4.40;;
75854;SDS011;64502;59.976;30.316;2024-02-26T02:56:48;14.90;;;5.70;;
75854;SDS011;64502;59.976;30.316;2024-02-26T02:59:16;13.20;;;4.40;;
75854;SDS011;64502;59.976;30.316;2024-02-26T03:01:42;11.18;;;4.70;;
75854;SDS011;64502;59.976;30.316;2024-02-26T03:04:07;8.90;;;4.10;;
75854;SDS011;64502;59.976;30.316;2024-02-26T03:06:33;13.40;;;4.75;;
75854;SDS011;64502;59.976;30.316;2024-02-26T03:08:58;11.43;;;5.13;;
75854;SDS011;64502;59.976;30.316;2024-02-26T03:11:24;12.40;;;4.88;;
75854;SDS011;64502;59.976;30.316;2024-02-26T03:13:51;11.57;;;4.78;;
75854;SDS011;64502;59.976;30.316;2024-02-26T03:16:17;9.90;;;4.32;;
75854;SDS011;64502;59.976;30.316;2024-02-26T03:18:43;11.90;;;4.70;;
75854;SDS011;64502;59.976;30.316;2024-02-26T03:21:08;11.02;;;4.90;;
75854;SDS011;64502;59.976;30.316;2024-02-26T03:23:34;10.88;;;5.40;;
75854;SDS011;64502;59.976;30.316;2024-02-26T03:26:05;10.68;;;4.85;;
75854;SDS011;64502;59.976;30.316;2024-02-26T03:28:30;9.05;;;3.95;;
75854;SDS011;64502;59.976;30.316;2024-02-26T03:31:16;9.70;;;4.25;;
75854;SDS011;64502;59.976;30.316;2024-02-26T03:33:42;10.48;;;4.30;;
75854;SDS011;64502;59.976;30.316;2024-02-26T03:36:07;12.25;;;4.95;;
75854;SDS011;64502;59.976;30.316;2024-02-26T03:38:33;12.43;;;5.38;;
75854;SDS011;64502;59.976;30.316;2024-02-26T03:40:58;10.90;;;5.03;;
75854;SDS011;64502;59.976;30.316;2024-02-26T03:43:24;9.98;;;4.00;;
75854;SDS011;64502;59.976;30.316;2024-02-26T03:45:50;12.60;;;4.32;;
75854;SDS011;64502;59.976;30.316;2024-02-26T03:48:15;11.85;;;4.30;;
75854;SDS011;64502;59.976;30.316;2024-02-26T03:50:41;10.13;;;3.78;;
75854;SDS011;64502;59.976;30.316;2024-02-26T03:53:06;11.02;;;5.20;;
75854;SDS011;64502;59.976;30.316;2024-02-26T03:55:34;10.05;;;3.92;;
75854;SDS011;64502;59.976;30.316;2024-02-26T03:57:59;10.73;;;4.47;;
75854;SDS011;64502;59.976;30.316;2024-02-26T04:00:25;9.40;;;3.72;;
75854;SDS011;64502;59.976;30.316;2024-02-26T04:02:55;10.52;;;4.93;;
75854;SDS011;64502;59.976;30.316;2024-02-26T04:05:20;11.18;;;4.47;;
75854;SDS011;64502;59.976;30.316;2024-02-26T04:07:46;11.45;;;4.75;;
75854;SDS011;64502;59.976;30.316;2024-02-26T04:10:12;9.27;;;4.70;;
75854;SDS011;64502;59.976;30.316;2024-02-26T04:12:38;11.55;;;3.88;;
75854;SDS011;64502;59.976;30.316;2024-02-26T04:15:06;10.30;;;4.15;;
75854;SDS011;64502;59.976;30.316;2024-02-26T04:17:32;11.80;;;5.03;;
75854;SDS011;64502;59.976;30.316;2024-02-26T04:19:58;9.75;;;4.70;;
75854;SDS011;64502;59.976;30.316;2024-02-26T04:22:23;10.38;;;4.53;;
75854;SDS011;64502;59.976;30.316;2024-02-26T04:24:49;10.90;;;4.55;;
75854;SDS011;64502;59.976;30.316;2024-02-26T04:27:14;12.63;;;6.20;;
75854;SDS011;64502;59.976;30.316;2024-02-26T04:29:40;10.95;;;4.85;;
75854;SDS011;64502;59.976;30.316;2024-02-26T04:32:05;11.77;;;5.47;;
75854;SDS011;64502;59.976;30.316;2024-02-26T04:34:32;10.35;;;4.65;;
75854;SDS011;64502;59.976;30.316;2024-02-26T04:36:57;13.52;;;5.22;;
75854;SDS011;64502;59.976;30.316;2024-02-26T04:39:23;12.07;;;5.38;;
75854;SDS011;64502;59.976;30.316;2024-02-26T04:41:48;15.05;;;6.20;;
75854;SDS011;64502;59.976;30.316;2024-02-26T04:44:14;13.98;;;5.70;;
75854;SDS011;64502;59.976;30.316;2024-02-26T04:46:39;14.65;;;5.72;;
75854;SDS011;64502;59.976;30.316;2024-02-26T04:49:05;13.40;;;5.78;;
75854;SDS011;64502;59.976;30.316;2024-02-26T04:51:31;12.88;;;5.75;;
75854;SDS011;64502;59.976;30.316;2024-02-26T04:53:56;13.35;;;5.35;;
75854;SDS011;64502;59.976;30.316;2024-02-26T04:56:21;13.27;;;6.15;;
75854;SDS011;64502;59.976;30.316;2024-02-26T04:58:47;14.27;;;5.25;;
75854;SDS011;64502;59.976;30.316;2024-02-26T05:01:13;13.70;;;5.50;;
75854;SDS011;64502;59.976;30.316;2024-02-26T05:03:41;13.13;;;5.90;;
75854;SDS011;64502;59.976;30.316;2024-02-26T05:06:07;12.57;;;5.57;;
75854;SDS011;64502;59.976;30.316;2024-02-26T05:08:34;14.55;;;5.78;;
75854;SDS011;64502;59.976;30.316;2024-02-26T05:11:01;17.08;;;6.20;;
75854;SDS011;64502;59.976;30.316;2024-02-26T05:13:29;15.68;;;6.55;;
75854;SDS011;64502;59.976;30.316;2024-02-26T05:16:13;12.25;;;5.70;;
75854;SDS011;64502;59.976;30.316;2024-02-26T05:18:39;14.07;;;6.50;;
75854;SDS011;64502;59.976;30.316;2024-02-26T05:21:04;12.57;;;5.65;;
75854;SDS011;64502;59.976;30.316;2024-02-26T05:23:30;16.20;;;5.80;;
75854;SDS011;64502;59.976;30.316;2024-02-26T05:25:55;16.02;;;6.53;;
75854;SDS011;64502;59.976;30.316;2024-02-26T05:28:21;13.10;;;5.55;;
75854;SDS011;64502;59.976;30.316;2024-02-26T05:30:46;12.45;;;6.28;;
75854;SDS011;64502;59.976;30.316;2024-02-26T05:33:13;15.13;;;6.20;;
75854;SDS011;64502;59.976;30.316;2024-02-26T05:35:38;10.45;;;5.20;;
75854;SDS011;64502;59.976;30.316;2024-02-26T05:38:05;13.88;;;6.60;;
75854;SDS011;64502;59.976;30.316;2024-02-26T05:40:31;14.35;;;7.05;;
75854;SDS011;64502;59.976;30.316;2024-02-26T05:42:57;14.50;;;5.88;;
75854;SDS011;64502;59.976;30.316;2024-02-26T05:45:22;14.25;;;6.65;;
75854;SDS011;64502;59.976;30.316;2024-02-26T05:47:47;16.70;;;6.65;;
75854;SDS011;64502;59.976;30.316;2024-02-26T05:50:14;17.02;;;6.00;;
75854;SDS011;64502;59.976;30.316;2024-02-26T05:52:40;14.40;;;6.35;;
75854;SDS011;64502;59.976;30.316;2024-02-26T05:55:06;14.57;;;6.40;;
75854;SDS011;64502;59.976;30.316;2024-02-26T05:57:33;14.70;;;6.15;;
75854;SDS011;64502;59.976;30.316;2024-02-26T05:59:59;17.50;;;5.93;;
75854;SDS011;64502;59.976;30.316;2024-02-26T06:02:28;12.50;;;6.18;;
75854;SDS011;64502;59.976;30.316;2024-02-26T06:04:57;14.75;;;5.75;;
75854;SDS011;64502;59.976;30.316;2024-02-26T06:10:07;13.77;;;5.72;;
75854;SDS011;64502;59.976;30.316;2024-02-26T06:12:35;11.80;;;5.00;;
75854;SDS011;64502;59.976;30.316;2024-02-26T06:15:01;12.82;;;5.40;;
75854;SDS011;64502;59.976;30.316;2024-02-26T06:17:27;14.30;;;5.50;;
75854;SDS011;64502;59.976;30.316;2024-02-26T06:19:53;13.15;;;5.13;;
75854;SDS011;64502;59.976;30.316;2024-02-26T06:22:19;12.38;;;5.00;;
75854;SDS011;64502;59.976;30.316;2024-02-26T06:24:44;13.73;;;5.35;;
75854;SDS011;64502;59.976;30.316;2024-02-26T06:27:10;13.20;;;4.93;;
75854;SDS011;64502;59.976;30.316;2024-02-26T06:29:35;13.88;;;5.85;;
75854;SDS011;64502;59.976;30.316;2024-02-26T06:32:01;11.13;;;4.75;;
75854;SDS011;64502;59.976;30.316;2024-02-26T06:34:26;13.27;;;4.88;;
75854;SDS011;64502;59.976;30.316;2024-02-26T06:36:52;12.68;;;5.28;;
75854;SDS011;64502;59.976;30.316;2024-02-26T06:39:17;12.20;;;5.80;;
75854;SDS011;64502;59.976;30.316;2024-02-26T06:41:44;10.25;;;4.40;;
75854;SDS011;64502;59.976;30.316;2024-02-26T06:44:12;11.40;;;4.95;;
75854;SDS011;64502;59.976;30.316;2024-02-26T06:46:38;11.70;;;5.82;;
75854;SDS011;64502;59.976;30.316;2024-02-26T06:49:04;12.98;;;5.72;;
75854;SDS011;64502;59.976;30.316;2024-02-26T06:51:30;13.23;;;5.28;;
75854;SDS011;64502;59.976;30.316;2024-02-26T06:53:55;12.77;;;5.25;;
75854;SDS011;64502;59.976;30.316;2024-02-26T06:56:21;16.20;;;6.15;;
75854;SDS011;64502;59.976;30.316;2024-02-26T06:58:47;13.48;;;5.57;;
75854;SDS011;64502;59.976;30.316;2024-02-26T07:01:12;10.73;;;5.07;;
75854;SDS011;64502;59.976;30.316;2024-02-26T07:03:40;11.63;;;5.88;;
75854;SDS011;64502;59.976;30.316;2024-02-26T07:06:05;13.82;;;5.38;;
75854;SDS011;64502;59.976;30.316;2024-02-26T07:08:32;13.05;;;5.88;;
75854;SDS011;64502;59.976;30.316;2024-02-26T07:10:57;12.18;;;5.35;;
75854;SDS011;64502;59.976;30.316;2024-02-26T07:13:24;12.23;;;5.65;;
75854;SDS011;64502;59.976;30.316;2024-02-26T07:15:50;12.65;;;5.38;;
75854;SDS011;64502;59.976;30.316;2024-02-26T07:18:15;11.95;;;5.45;;
75854;SDS011;64502;59.976;30.316;2024-02-26T07:20:40;9.43;;;4.53;;
75854;SDS011;64502;59.976;30.316;2024-02-26T07:23:06;11.23;;;4.65;;
75854;SDS011;64502;59.976;30.316;2024-02-26T07:25:32;11.20;;;4.90;;
75854;SDS011;64502;59.976;30.316;2024-02-26T07:27:57;13.55;;;5.10;;
75854;SDS011;64502;59.976;30.316;2024-02-26T07:30:23;14.57;;;6.38;;
75854;SDS011;64502;59.976;30.316;2024-02-26T07:32:49;12.68;;;5.35;;
75854;SDS011;64502;59.976;30.316;2024-02-26T07:38:01;14.45;;;6.22;;
75854;SDS011;64502;59.976;30.316;2024-02-26T07:40:26;16.52;;;6.07;;
75854;SDS011;64502;59.976;30.316;2024-02-26T07:42:52;15.63;;;6.13;;
75854;SDS011;64502;59.976;30.316;2024-02-26T07:45:18;11.95;;;5.68;;
75854;SDS011;64502;59.976;30.316;2024-02-26T07:47:46;11.82;;;5.95;;
75854;SDS011;64502;59.976;30.316;2024-02-26T07:50:12;12.70;;;5.63;;
75854;SDS011;64502;59.976;30.316;2024-02-26T07:52:38;11.60;;;5.57;;
75854;SDS011;64502;59.976;30.316;2024-02-26T07:55:04;12.60;;;5.38;;
75854;SDS011;64502;59.976;30.316;2024-02-26T07:57:30;10.43;;;6.38;;
75854;SDS011;64502;59.976;30.316;2024-02-26T07:59:55;12.90;;;5.25;;
75854;SDS011;64502;59.976;30.316;2024-02-26T08:02:21;11.52;;;4.88;;
75854;SDS011;64502;59.976;30.316;2024-02-26T08:05:05;9.70;;;4.68;;
75854;SDS011;64502;59.976;30.316;2024-02-26T08:07:49;8.95;;;4.38;;
75854;SDS011;64502;59.976;30.316;2024-02-26T08:10:15;10.05;;;4.03;;
75854;SDS011;64502;59.976;30.316;2024-02-26T08:12:40;8.15;;;3.90;;
75854;SDS011;64502;59.976;30.316;2024-02-26T08:15:06;11.45;;;5.50;;
75854;SDS011;64502;59.976;30.316;2024-02-26T08:17:33;9.80;;;4.88;;
75854;SDS011;64502;59.976;30.316;2024-02-26T08:19:59;8.45;;;4.30;;
75854;SDS011;64502;59.976;30.316;2024-02-26T08:22:25;9.18;;;4.22;;
75854;SDS011;64502;59.976;30.316;2024-02-26T08:24:51;6.25;;;3.70;;
75854;SDS011;64502;59.976;30.316;2024-02-26T08:27:16;7.20;;;3.88;;
75854;SDS011;64502;59.976;30.316;2024-02-26T08:29:42;6.95;;;3.17;;
75854;SDS011;64502;59.976;30.316;2024-02-26T08:32:08;7.55;;;3.33;;
75854;SDS011;64502;59.976;30.316;2024-02-26T08:34:33;7.57;;;4.15;;
75854;SDS011;64502;59.976;30.316;2024-02-26T08:36:59;5.90;;;3.05;;
75854;SDS011;64502;59.976;30.316;2024-02-26T08:39:25;8.23;;;4.13;;
75854;SDS011;64502;59.976;30.316;2024-02-26T08:41:51;7.88;;;3.95;;
75854;SDS011;64502;59.976;30.316;2024-02-26T08:44:16;6.93;;;3.80;;
75854;SDS011;64502;59.976;30.316;2024-02-26T08:46:42;6.20;;;3.00;;
75854;SDS011;64502;59.976;30.316;2024-02-26T08:51:52;6.00;;;3.33;;
75854;SDS011;64502;59.976;30.316;2024-02-26T08:54:17;9.07;;;3.72;;
75854;SDS011;64502;59.976;30.316;2024-02-26T08:56:43;6.68;;;3.10;;
75854;SDS011;64502;59.976;30.316;2024-02-26T08:59:08;6.18;;;3.92;;
75854;SDS011;64502;59.976;30.316;2024-02-26T09:01:34;6.68;;;2.70;;
75854;SDS011;64502;59.976;30.316;2024-02-26T09:04:00;7.10;;;3.22;;
75854;SDS011;64502;59.976;30.316;2024-02-26T09:06:26;7.60;;;3.15;;
75854;SDS011;64502;59.976;30.316;2024-02-26T09:08:51;6.07;;;3.30;;
75854;SDS011;64502;59.976;30.316;2024-02-26T09:11:17;6.90;;;3.20;;
75854;SDS011;64502;59.976;30.316;2024-02-26T09:13:42;5.65;;;3.20;;
75854;SDS011;64502;59.976;30.316;2024-02-26T09:16:08;8.05;;;2.97;;
75854;SDS011;64502;59.976;30.316;2024-02-26T09:18:33;5.45;;;2.78;;
75854;SDS011;64502;59.976;30.316;2024-02-26T09:21:00;7.40;;;3.50;;
75854;SDS011;64502;59.976;30.316;2024-02-26T09:23:29;7.28;;;3.38;;
75854;SDS011;64502;59.976;30.316;2024-02-26T09:25:55;9.20;;;2.97;;
75854;SDS011;64502;59.976;30.316;2024-02-26T09:28:20;6.20;;;3.08;;
75854;SDS011;64502;59.976;30.316;2024-02-26T09:30:46;4.88;;;2.83;;
75854;SDS011;64502;59.976;30.316;2024-02-26T09:33:13;9.40;;;3.13;;
75854;SDS011;64502;59.976;30.316;2024-02-26T09:35:38;4.75;;;2.40;;
75854;SDS011;64502;59.976;30.316;2024-02-26T09:38:04;6.95;;;2.85;;
75854;SDS011;64502;59.976;30.316;2024-02-26T09:40:29;6.32;;;2.88;;
75854;SDS011;64502;59.976;30.316;2024-02-26T09:43:14;5.18;;;2.40;;
75854;SDS011;64502;59.976;30.316;2024-02-26T09:45:42;3.92;;;2.13;;
75854;SDS011;64502;59.976;30.316;2024-02-26T09:48:08;5.10;;;2.08;;
75854;SDS011;64502;59.976;30.316;2024-02-26T09:50:35;4.28;;;2.55;;
75854;SDS011;64502;59.976;30.316;2024-02-26T09:53:02;4.28;;;1.70;;
75854;SDS011;64502;59.976;30.316;2024-02-26T09:55:30;4.25;;;1.52;;
75854;SDS011;64502;59.976;30.316;2024-02-26T09:57:56;4.53;;;1.85;;
75854;SDS011;64502;59.976;30.316;2024-02-26T10:00:23;3.67;;;1.70;;
75854;SDS011;64502;59.976;30.316;2024-02-26T10:02:55;4.50;;;2.28;;
75854;SDS011;64502;59.976;30.316;2024-02-26T10:05:23;4.45;;;2.03;;
75854;SDS011;64502;59.976;30.316;2024-02-26T10:07:51;2.38;;;1.20;;
75854;SDS011;64502;59.976;30.316;2024-02-26T10:10:17;3.83;;;2.55;;
75854;SDS011;64502;59.976;30.316;2024-02-26T10:12:44;4.13;;;2.10;;
75854;SDS011;64502;59.976;30.316;2024-02-26T10:15:09;6.30;;;3.05;;
75854;SDS011;64502;59.976;30.316;2024-02-26T10:17:35;4.03;;;1.88;;
75854;SDS011;64502;59.976;30.316;2024-02-26T10:20:11;4.15;;;2.20;;
75854;SDS011;64502;59.976;30.316;2024-02-26T10:22:37;3.60;;;2.05;;
75854;SDS011;64502;59.976;30.316;2024-02-26T10:25:05;4.93;;;1.80;;
75854;SDS011;64502;59.976;30.316;2024-02-26T10:27:31;4.07;;;2.28;;
75854;SDS011;64502;59.976;30.316;2024-02-26T10:29:57;5.22;;;2.75;;
75854;SDS011;64502;59.976;30.316;2024-02-26T10:32:22;5.95;;;2.45;;
75854;SDS011;64502;59.976;30.316;2024-02-26T10:34:48;5.25;;;2.90;;
75854;SDS011;64502;59.976;30.316;2024-02-26T10:37:21;4.70;;;2.50;;
75854;SDS011;64502;59.976;30.316;2024-02-26T10:39:48;5.05;;;2.00;;
75854;SDS011;64502;59.976;30.316;2024-02-26T10:42:13;6.13;;;2.15;;
75854;SDS011;64502;59.976;30.316;2024-02-26T10:44:40;5.18;;;2.90;;
75854;SDS011;64502;59.976;30.316;2024-02-26T10:47:07;5.45;;;3.17;;
75854;SDS011;64502;59.976;30.316;2024-02-26T10:49:34;4.45;;;2.42;;
75854;SDS011;64502;59.976;30.316;2024-02-26T10:52:00;5.88;;;2.80;;
75854;SDS011;64502;59.976;30.316;2024-02-26T10:54:26;4.85;;;2.63;;
75854;SDS011;64502;59.976;30.316;2024-02-26T10:56:55;5.00;;;2.60;;
75854;SDS011;64502;59.976;30.316;2024-02-26T10:59:22;6.00;;;3.00;;
75854;SDS011;64502;59.976;30.316;2024-02-26T11:01:48;5.13;;;2.75;;
75854;SDS011;64502;59.976;30.316;2024-02-26T11:04:15;6.40;;;2.97;;
75854;SDS011;64502;59.976;30.316;2024-02-26T11:06:43;6.43;;;3.05;;
75854;SDS011;64502;59.976;30.316;2024-02-26T11:09:11;5.82;;;2.85;;
75854;SDS011;64502;59.976;30.316;2024-02-26T11:11:38;5.07;;;3.25;;
75854;SDS011;64502;59.976;30.316;2024-02-26T11:14:05;6.03;;;3.00;;
75854;SDS011;64502;59.976;30.316;2024-02-26T11:16:34;4.47;;;2.67;;
75854;SDS011;64502;59.976;30.316;2024-02-26T11:19:01;4.90;;;2.80;;
75854;SDS011;64502;59.976;30.316;2024-02-26T11:21:27;5.15;;;2.60;;
75854;SDS011;64502;59.976;30.316;2024-02-26T11:24:04;6.32;;;2.45;;
75854;SDS011;64502;59.976;30.316;2024-02-26T11:26:50;5.65;;;2.47;;
75854;SDS011;64502;59.976;30.316;2024-02-26T11:29:25;5.55;;;2.65;;
75854;SDS011;64502;59.976;30.316;2024-02-26T11:31:55;4.97;;;2.90;;
75854;SDS011;64502;59.976;30.316;2024-02-26T11:34:20;4.93;;;2.30;;
75854;SDS011;64502;59.976;30.316;2024-02-26T11:36:46;5.50;;;2.75;;
75854;SDS011;64502;59.976;30.316;2024-02-26T11:39:12;4.53;;;2.35;;
75854;SDS011;64502;59.976;30.316;2024-02-26T11:41:40;4.00;;;2.28;;
75854;SDS011;64502;59.976;30.316;2024-02-26T11:44:05;4.07;;;2.17;;
75854;SDS011;64502;59.976;30.316;2024-02-26T11:46:32;5.68;;;2.80;;
75854;SDS011;64502;59.976;30.316;2024-02-26T11:49:41;7.10;;;2.88;;
75854;SDS011;64502;59.976;30.316;2024-02-26T11:51:56;4.78;;;2.67;;
75854;SDS011;64502;59.976;30.316;2024-02-26T11:57:24;4.07;;;2.47;;
75854;SDS011;64502;59.976;30.316;2024-02-26T11:59:54;4.28;;;2.90;;
75854;SDS011;64502;59.976;30.316;2024-02-26T12:02:51;5.97;;;3.00;;
75854;SDS011;64502;59.976;30.316;2024-02-26T12:05:26;4.82;;;2.83;;
75854;SDS011;64502;59.976;30.316;2024-02-26T12:10:38;6.05;;;3.35;;
75854;SDS011;64502;59.976;30.316;2024-02-26T12:13:08;4.88;;;3.03;;
75854;SDS011;64502;59.976;30.316;2024-02-26T12:18:07;5.90;;;2.95;;
75854;SDS011;64502;59.976;30.316;2024-02-26T12:20:35;6.30;;;3.30;;
75854;SDS011;64502;59.976;30.316;2024-02-26T12:23:02;5.82;;;3.17;;
75854;SDS011;64502;59.976;30.316;2024-02-26T12:25:29;7.00;;;3.42;;
75854;SDS011;64502;59.976;30.316;2024-02-26T12:27:56;6.55;;;3.25;;
75854;SDS011;64502;59.976;30.316;2024-02-26T12:30:22;5.82;;;3.45;;
75854;SDS011;64502;59.976;30.316;2024-02-26T12:32:48;7.50;;;3.28;;
75854;SDS011;64502;59.976;30.316;2024-02-26T12:35:15;11.02;;;4.05;;
75854;SDS011;64502;59.976;30.316;2024-02-26T12:37:42;7.53;;;3.40;;
75854;SDS011;64502;59.976;30.316;2024-02-26T12:40:08;6.50;;;3.60;;
75854;SDS011;64502;59.976;30.316;2024-02-26T12:42:35;9.05;;;4.00;;
75854;SDS011;64502;59.976;30.316;2024-02-26T12:45:09;6.55;;;3.80;;
75854;SDS011;64502;59.976;30.316;2024-02-26T12:47:39;8.77;;;4.65;;
75854;SDS011;64502;59.976;30.316;2024-02-26T12:52:50;6.93;;;3.20;;
75854;SDS011;64502;59.976;30.316;2024-02-26T12:55:18;7.78;;;4.20;;
75854;SDS011;64502;59.976;30.316;2024-02-26T13:00:31;6.78;;;3.20;;
75854;SDS011;64502;59.976;30.316;2024-02-26T13:02:59;4.80;;;2.92;;
75854;SDS011;64502;59.976;30.316;2024-02-26T13:05:25;4.75;;;3.00;;
75854;SDS011;64502;59.976;30.316;2024-02-26T13:07:51;7.72;;;3.13;;
75854;SDS011;64502;59.976;30.316;2024-02-26T13:10:18;7.28;;;3.30;;
75854;SDS011;64502;59.976;30.316;2024-02-26T13:15:13;7.25;;;3.10;;
75854;SDS011;64502;59.976;30.316;2024-02-26T13:17:40;5.60;;;2.95;;
75854;SDS011;64502;59.976;30.316;2024-02-26T13:20:07;5.50;;;2.60;;
75854;SDS011;64502;59.976;30.316;2024-02-26T13:22:35;5.72;;;2.83;;
75854;SDS011;64502;59.976;30.316;2024-02-26T13:25:01;6.25;;;2.95;;
75854;SDS011;64502;59.976;30.316;2024-02-26T13:27:29;6.85;;;3.08;;
75854;SDS011;64502;59.976;30.316;2024-02-26T13:30:11;6.05;;;3.17;;
75854;SDS011;64502;59.976;30.316;2024-02-26T13:32:40;6.53;;;3.47;;
75854;SDS011;64502;59.976;30.316;2024-02-26T13:35:07;5.65;;;3.50;;
75854;SDS011;64502;59.976;30.316;2024-02-26T13:37:34;7.03;;;3.05;;
75854;SDS011;64502;59.976;30.316;2024-02-26T13:42:33;6.50;;;3.00;;
75854;SDS011;64502;59.976;30.316;2024-02-26T13:44:59;5.78;;;3.33;;
75854;SDS011;64502;59.976;30.316;2024-02-26T13:47:25;4.63;;;2.83;;
75854;SDS011;64502;59.976;30.316;2024-02-26T13:49:51;3.50;;;2.00;;
75854;SDS011;64502;59.976;30.316;2024-02-26T13:52:16;3.50;;;2.50;;
75854;SDS011;64502;59.976;30.316;2024-02-26T13:54:42;5.18;;;1.90;;
75854;SDS011;64502;59.976;30.316;2024-02-26T13:57:07;4.68;;;2.20;;
75854;SDS011;64502;59.976;30.316;2024-02-26T13:59:34;4.90;;;2.20;;
75854;SDS011;64502;59.976;30.316;2024-02-26T14:02:00;5.07;;;2.47;;
75854;SDS011;64502;59.976;30.316;2024-02-26T14:04:26;5.60;;;2.67;;
75854;SDS011;64502;59.976;30.316;2024-02-26T14:06:51;7.65;;;2.10;;
75854;SDS011;64502;59.976;30.316;2024-02-26T14:09:17;4.20;;;2.00;;
75854;SDS011;64502;59.976;30.316;2024-02-26T14:11:47;4.63;;;2.05;;
75854;SDS011;64502;59.976;30.316;2024-02-26T14:14:13;4.57;;;2.20;;
75854;SDS011;64502;59.976;30.316;2024-02-26T14:16:39;7.30;;;2.08;;
75854;SDS011;64502;59.976;30.316;2024-02-26T14:19:04;4.57;;;2.05;;
75854;SDS011;64502;59.976;30.316;2024-02-26T14:21:30;3.85;;;2.20;;
75854;SDS011;64502;59.976;30.316;2024-02-26T14:23:55;4.63;;;2.65;;
75854;SDS011;64502;59.976;30.316;2024-02-26T14:26:24;4.40;;;2.42;;
75854;SDS011;64502;59.976;30.316;2024-02-26T14:28:50;4.18;;;2.28;;
75854;SDS011;64502;59.976;30.316;2024-02-26T14:31:18;5.20;;;2.97;;
75854;SDS011;64502;59.976;30.316;2024-02-26T14:33:44;3.65;;;2.15;;
75854;SDS011;64502;59.976;30.316;2024-02-26T14:36:10;4.78;;;2.53;;
75854;SDS011;64502;59.976;30.316;2024-02-26T14:38:36;6.07;;;2.90;;
75854;SDS011;64502;59.976;30.316;2024-02-26T14:41:02;6.22;;;2.63;;
75854;SDS011;64502;59.976;30.316;2024-02-26T14:43:46;7.38;;;3.88;;
75854;SDS011;64502;59.976;30.316;2024-02-26T14:46:13;6.57;;;3.67;;
75854;SDS011;64502;59.976;30.316;2024-02-26T14:48:39;6.15;;;3.15;;
75854;SDS011;64502;59.976;30.316;2024-02-26T14:51:04;6.15;;;3.38;;
75854;SDS011;64502;59.976;30.316;2024-02-26T14:53:31;8.88;;;3.58;;
75854;SDS011;64502;59.976;30.316;2024-02-26T14:55:57;6.00;;;3.20;;
75854;SDS011;64502;59.976;30.316;2024-02-26T14:58:23;6.55;;;3.63;;
75854;SDS011;64502;59.976;30.316;2024-02-26T15:00:48;5.00;;;2.97;;
75854;SDS011;64502;59.976;30.316;2024-02-26T15:03:14;6.40;;;3.03;;
75854;SDS011;64502;59.976;30.316;2024-02-26T15:05:40;6.22;;;3.83;;
75854;SDS011;64502;59.976;30.316;2024-02-26T15:08:06;7.47;;;3.65;;
75854;SDS011;64502;59.976;30.316;2024-02-26T15:10:34;7.63;;;4.13;;
75854;SDS011;64502;59.976;30.316;2024-02-26T15:12:59;8.18;;;3.50;;
75854;SDS011;64502;59.976;30.316;2024-02-26T15:15:25;7.55;;;3.92;;